createdAt,value
2023-05-09T00:00:43.318Z,37.71
2023-05-09T00:01:43.347Z,37.72
2023-05-09T00:02:43.450Z,37.71
2023-05-09T00:03:43.310Z,37.70
2023-05-09T00:04:43.384Z,37.75
2023-05-09T00:05:43.336Z,37.75
2023-05-09T00:06:43.377Z,37.73
2023-05-09T00:07:43.411Z,37.80
2023-05-09T00:08:43.410Z,37.72
2023-05-09T00:09:43.404Z,37.73
2023-05-09T00:10:43.500Z,37.70
2023-05-09T00:11:43.420Z,37.70
2023-05-09T00:12:43.424Z,37.71
2023-05-09T00:13:43.412Z,37.75
2023-05-09T00:14:43.437Z,37.72
2023-05-09T00:15:43.425Z,37.73
2023-05-09T00:16:43.469Z,37.71
2023-05-09T00:17:43.442Z,37.66
2023-05-09T00:18:43.451Z,37.74
2023-05-09T00:19:43.447Z,37.71
2023-05-09T00:20:43.439Z,37.70
2023-05-09T00:21:43.432Z,37.76
2023-05-09T00:22:43.435Z,37.73
2023-05-09T00:23:43.426Z,37.72
2023-05-09T00:24:43.441Z,37.73
2023-05-09T00:25:43.438Z,37.75
2023-05-09T00:26:43.540Z,37.70
2023-05-09T00:27:43.449Z,37.68
2023-05-09T00:28:43.461Z,37.69
2023-05-09T00:29:43.445Z,37.70
2023-05-09T00:30:43.435Z,37.72
2023-05-09T00:31:43.477Z,37.69
2023-05-09T00:32:43.471Z,37.74
2023-05-09T00:33:43.515Z,37.67
2023-05-09T00:34:43.527Z,37.68
2023-05-09T00:35:43.573Z,37.69
2023-05-09T00:36:43.613Z,37.68
2023-05-09T00:37:43.652Z,37.68
2023-05-09T00:38:43.713Z,37.71
2023-05-09T00:39:43.750Z,37.71
2023-05-09T00:40:43.763Z,37.67
2023-05-09T00:41:43.816Z,37.65
2023-05-09T00:42:43.914Z,37.70
2023-05-09T00:43:43.850Z,37.69
2023-05-09T00:44:43.834Z,37.65
2023-05-09T00:45:43.871Z,37.68
2023-05-09T00:46:43.853Z,37.68
2023-05-09T00:47:43.937Z,37.68
2023-05-09T00:48:43.867Z,37.65
2023-05-09T00:49:43.876Z,37.72
2023-05-09T00:50:43.871Z,37.68
2023-05-09T00:51:43.882Z,37.70
2023-05-09T00:52:43.909Z,37.69
2023-05-09T00:53:43.903Z,37.66
2023-05-09T00:54:43.916Z,37.69
2023-05-09T00:55:43.918Z,37.70
2023-05-09T00:56:43.930Z,37.69
2023-05-09T00:57:43.938Z,37.68
2023-05-09T00:58:44.035Z,37.65
2023-05-09T00:59:43.987Z,37.64
2023-05-09T01:00:44.009Z,37.62
2023-05-09T01:01:44.112Z,37.67
2023-05-09T01:02:44.305Z,37.66
2023-05-09T01:03:44.272Z,37.67
2023-05-09T01:04:44.174Z,37.68
2023-05-09T01:05:44.229Z,37.71
2023-05-09T01:06:44.278Z,37.67
2023-05-09T01:07:44.313Z,37.67
2023-05-09T01:08:44.407Z,37.68
2023-05-09T01:09:44.425Z,37.65
2023-05-09T01:10:44.448Z,37.68
2023-05-09T01:11:44.506Z,37.65
2023-05-09T01:12:44.569Z,37.65
2023-05-09T01:13:44.566Z,37.65
2023-05-09T01:14:44.713Z,37.62
2023-05-09T01:15:44.697Z,37.60
2023-05-09T01:16:44.712Z,37.65
2023-05-09T01:17:44.782Z,37.63
2023-05-09T01:18:44.827Z,37.66
2023-05-09T01:19:44.850Z,37.66
2023-05-09T01:20:44.885Z,37.67
2023-05-09T01:21:44.939Z,37.65
2023-05-09T01:22:44.996Z,37.63
2023-05-09T01:23:45.072Z,37.63
2023-05-09T01:24:45.066Z,37.68
2023-05-09T01:25:45.114Z,37.70
2023-05-09T01:26:45.312Z,37.65
2023-05-09T01:27:45.234Z,37.66
2023-05-09T01:28:45.239Z,37.60
2023-05-09T01:29:45.289Z,37.61
2023-05-09T01:30:45.426Z,37.65
2023-05-09T01:31:45.459Z,37.64
2023-05-09T01:32:45.506Z,37.61
2023-05-09T01:33:45.481Z,37.61
2023-05-09T01:34:45.517Z,37.65
2023-05-09T01:35:45.575Z,37.61
2023-05-09T01:36:45.629Z,37.60
2023-05-09T01:37:45.660Z,37.60
2023-05-09T01:38:45.711Z,37.58
2023-05-09T01:39:45.753Z,37.61
2023-05-09T01:40:45.799Z,37.62
2023-05-09T01:41:45.853Z,37.63
2023-05-09T01:42:45.909Z,37.64
2023-05-09T01:43:45.993Z,37.60
2023-05-09T01:44:45.944Z,37.60
2023-05-09T01:45:45.945Z,37.63
2023-05-09T01:46:46.084Z,37.62
2023-05-09T01:47:46.030Z,37.61
2023-05-09T01:48:45.971Z,37.65
2023-05-09T01:49:45.954Z,37.59
2023-05-09T01:50:45.935Z,37.59
2023-05-09T01:51:45.935Z,37.59
2023-05-09T01:52:45.926Z,37.60
2023-05-09T01:53:45.936Z,37.58
2023-05-09T01:54:45.941Z,37.59
2023-05-09T01:55:45.936Z,37.59
2023-05-09T01:56:45.941Z,37.60
2023-05-09T01:57:45.955Z,37.58
2023-05-09T01:58:45.937Z,37.57
2023-05-09T01:59:45.947Z,37.61
2023-05-09T02:00:45.990Z,37.65
2023-05-09T02:01:45.970Z,37.59
2023-05-09T02:02:46.175Z,37.62
2023-05-09T02:03:45.944Z,37.58
2023-05-09T02:04:45.943Z,37.61
2023-05-09T02:05:45.962Z,37.60
2023-05-09T02:06:45.949Z,37.62
2023-05-09T02:07:45.945Z,37.57
2023-05-09T02:08:45.957Z,37.62
2023-05-09T02:09:45.995Z,37.64
2023-05-09T02:10:46.040Z,37.60
2023-05-09T02:11:46.096Z,37.57
2023-05-09T02:12:46.160Z,37.58
2023-05-09T02:13:46.193Z,37.58
2023-05-09T02:14:46.262Z,37.55
2023-05-09T02:15:46.252Z,37.58
2023-05-09T02:16:46.290Z,37.55
2023-05-09T02:17:46.286Z,37.59
2023-05-09T02:18:46.366Z,37.53
2023-05-09T02:19:46.278Z,37.53
2023-05-09T02:20:46.330Z,37.54
2023-05-09T02:21:46.309Z,37.56
2023-05-09T02:22:46.278Z,37.53
2023-05-09T02:23:46.276Z,37.54
2023-05-09T02:24:46.301Z,37.56
2023-05-09T02:25:46.283Z,37.58
2023-05-09T02:26:46.329Z,37.54
2023-05-09T02:27:46.328Z,37.53
2023-05-09T02:28:46.323Z,37.54
2023-05-09T02:29:46.368Z,37.55
2023-05-09T02:30:46.426Z,37.56
2023-05-09T02:31:46.501Z,37.60
2023-05-09T02:32:46.509Z,37.54
2023-05-09T02:33:46.578Z,37.53
2023-05-09T02:34:46.608Z,37.55
2023-05-09T02:35:46.618Z,37.53
2023-05-09T02:36:46.647Z,37.57
2023-05-09T02:37:46.630Z,37.53
2023-05-09T02:38:46.619Z,37.53
2023-05-09T02:39:46.632Z,37.55
2023-05-09T02:40:46.629Z,37.60
2023-05-09T02:41:46.643Z,37.56
2023-05-09T02:42:46.742Z,37.57
2023-05-09T02:43:46.637Z,37.58
2023-05-09T02:44:46.643Z,37.57
2023-05-09T02:45:46.663Z,37.56
2023-05-09T02:46:46.666Z,37.53
2023-05-09T02:47:46.690Z,37.55
2023-05-09T02:48:46.653Z,37.53
2023-05-09T02:49:46.654Z,37.57
2023-05-09T02:50:46.756Z,37.54
2023-05-09T02:51:46.657Z,37.54
2023-05-09T02:52:46.677Z,37.54
2023-05-09T02:53:46.674Z,37.53
2023-05-09T02:54:46.714Z,37.54
2023-05-09T02:55:46.760Z,37.50
2023-05-09T02:56:46.815Z,37.48
2023-05-09T02:57:46.893Z,37.49
2023-05-09T02:58:46.930Z,37.47
2023-05-09T02:59:47.012Z,37.49
2023-05-09T03:00:47.035Z,37.52
2023-05-09T03:01:47.103Z,37.52
2023-05-09T03:02:47.169Z,37.49
2023-05-09T03:03:47.211Z,37.56
2023-05-09T03:04:47.091Z,37.54
2023-05-09T03:05:47.119Z,37.52
2023-05-09T03:06:47.205Z,37.53
2023-05-09T03:07:47.121Z,37.53
2023-05-09T03:08:47.129Z,37.55
2023-05-09T03:09:47.144Z,37.54
2023-05-09T03:10:47.163Z,37.54
2023-05-09T03:11:47.183Z,37.50
2023-05-09T03:12:47.230Z,37.50
2023-05-09T03:13:47.201Z,37.50
2023-05-09T03:14:47.202Z,37.50
2023-05-09T03:15:47.226Z,37.49
2023-05-09T03:16:47.329Z,37.49
2023-05-09T03:17:47.345Z,37.50
2023-05-09T03:18:47.366Z,37.48
2023-05-09T03:19:47.425Z,37.50
2023-05-09T03:20:47.471Z,37.48
2023-05-09T03:21:47.533Z,37.49
2023-05-09T03:22:47.680Z,37.52
2023-05-09T03:23:47.639Z,37.48
2023-05-09T03:24:47.692Z,37.49
2023-05-09T03:25:47.764Z,37.50
2023-05-09T03:26:47.807Z,37.50
2023-05-09T03:27:47.861Z,37.52
2023-05-09T03:28:47.900Z,37.51
2023-05-09T03:29:47.988Z,37.52
2023-05-09T03:30:48.009Z,37.47
2023-05-09T03:31:48.099Z,37.51
2023-05-09T03:32:48.191Z,37.47
2023-05-09T03:33:48.172Z,37.47
2023-05-09T03:34:48.228Z,37.43
2023-05-09T03:35:48.285Z,37.46
2023-05-09T03:36:48.389Z,37.44
2023-05-09T03:37:48.398Z,37.45
2023-05-09T03:38:48.669Z,37.47
2023-05-09T03:39:48.492Z,37.44
2023-05-09T03:40:48.553Z,37.46
2023-05-09T03:41:48.604Z,37.46
2023-05-09T03:42:48.673Z,37.42
2023-05-09T03:43:48.722Z,37.46
2023-05-09T03:44:48.781Z,37.45
2023-05-09T03:45:48.819Z,37.45
2023-05-09T03:46:48.909Z,37.47
2023-05-09T03:47:48.995Z,37.49
2023-05-09T03:48:49.000Z,37.45
2023-05-09T03:49:49.046Z,37.49
2023-05-09T03:50:49.118Z,37.48
2023-05-09T03:51:49.154Z,37.45
2023-05-09T03:52:49.219Z,37.41
2023-05-09T03:53:49.267Z,37.34
2023-05-09T03:54:49.429Z,37.40
2023-05-09T03:55:49.383Z,37.43
2023-05-09T03:56:49.432Z,37.40
2023-05-09T03:57:49.450Z,37.43
2023-05-09T03:58:49.489Z,37.43
2023-05-09T03:59:49.438Z,37.43
2023-05-09T04:00:49.436Z,37.46
2023-05-09T04:01:49.515Z,37.47
2023-05-09T04:02:49.565Z,37.46
2023-05-09T04:03:49.488Z,37.44
2023-05-09T04:04:49.548Z,37.42
2023-05-09T04:05:49.628Z,37.43
2023-05-09T04:06:49.488Z,37.45
2023-05-09T04:07:49.540Z,37.47
2023-05-09T04:08:49.487Z,37.47
2023-05-09T04:09:49.538Z,37.50
2023-05-09T04:10:49.694Z,37.45
2023-05-09T04:11:49.653Z,37.42
2023-05-09T04:12:49.767Z,37.43
2023-05-09T04:13:49.757Z,37.41
2023-05-09T04:14:49.822Z,37.42
2023-05-09T04:15:49.879Z,37.38
2023-05-09T04:16:49.973Z,37.39
2023-05-09T04:17:50.036Z,37.40
2023-05-09T04:18:50.079Z,37.41
2023-05-09T04:19:50.103Z,37.45
2023-05-09T04:20:50.173Z,37.42
2023-05-09T04:21:50.256Z,37.42
2023-05-09T04:22:50.302Z,37.45
2023-05-09T04:23:50.350Z,37.44
2023-05-09T04:24:50.419Z,37.43
2023-05-09T04:25:50.483Z,37.41
2023-05-09T04:26:50.636Z,37.43
2023-05-09T04:27:50.617Z,37.44
2023-05-09T04:28:50.679Z,37.43
2023-05-09T04:29:50.722Z,37.39
2023-05-09T04:30:50.838Z,37.41
2023-05-09T04:31:50.983Z,37.44
2023-05-09T04:32:50.946Z,37.40
2023-05-09T04:33:50.973Z,37.44
2023-05-09T04:34:51.029Z,37.41
2023-05-09T04:35:51.071Z,37.42
2023-05-09T04:36:51.140Z,37.43
2023-05-09T04:37:51.226Z,37.41
2023-05-09T04:38:51.266Z,37.42
2023-05-09T04:39:51.323Z,37.41
2023-05-09T04:40:51.391Z,37.42
2023-05-09T04:41:51.460Z,37.44
2023-05-09T04:42:51.632Z,37.41
2023-05-09T04:43:51.568Z,37.41
2023-05-09T04:44:51.642Z,37.39
2023-05-09T04:45:51.732Z,37.44
2023-05-09T04:46:51.778Z,37.38
2023-05-09T04:47:51.851Z,37.42
2023-05-09T04:48:51.877Z,37.40
2023-05-09T04:49:51.952Z,37.41
2023-05-09T04:50:52.015Z,37.39
2023-05-09T04:51:52.074Z,37.37
2023-05-09T04:52:52.146Z,37.39
2023-05-09T04:53:52.203Z,37.40
2023-05-09T04:54:52.252Z,37.43
2023-05-09T04:55:52.305Z,37.40
2023-05-09T04:56:53.220Z,37.38
2023-05-09T04:57:52.376Z,37.37
2023-05-09T04:58:52.478Z,37.38
2023-05-09T04:59:52.396Z,37.39
2023-05-09T05:00:52.395Z,37.36
2023-05-09T05:01:52.417Z,37.42
2023-05-09T05:02:52.452Z,37.42
2023-05-09T05:03:52.422Z,37.41
2023-05-09T05:04:55.995Z,37.37
2023-05-09T05:05:53.495Z,37.37
2023-05-09T05:06:52.429Z,37.38
2023-05-09T05:07:52.441Z,37.39
2023-05-09T05:08:52.438Z,37.42
2023-05-09T05:09:52.451Z,37.45
2023-05-09T05:10:52.492Z,37.42
2023-05-09T05:12:00.750Z,37.41
2023-05-09T05:12:53.479Z,37.42
2023-05-09T05:13:52.457Z,37.37
2023-05-09T05:14:52.549Z,37.40
2023-05-09T05:15:52.512Z,37.36
2023-05-09T05:16:52.479Z,37.37
2023-05-09T05:17:52.528Z,37.37
2023-05-09T05:18:52.481Z,37.37
2023-05-09T05:19:52.485Z,37.37
2023-05-09T05:20:52.478Z,37.36
2023-05-09T05:21:52.476Z,37.40
2023-05-09T05:22:52.504Z,37.37
2023-05-09T05:23:52.564Z,37.39
2023-05-09T05:24:52.651Z,37.37
2023-05-09T05:25:52.696Z,37.35
2023-05-09T05:26:52.749Z,37.39
2023-05-09T05:27:52.850Z,37.37
2023-05-09T05:28:52.804Z,37.35
2023-05-09T05:29:52.806Z,37.30
2023-05-09T05:30:52.920Z,37.34
2023-05-09T05:31:53.020Z,37.35
2023-05-09T05:32:52.851Z,37.33
2023-05-09T05:33:52.908Z,37.34
2023-05-09T05:34:52.809Z,37.62
2023-05-09T05:35:52.820Z,37.73
2023-05-09T05:36:52.829Z,38.36
2023-05-09T05:37:52.823Z,38.48
2023-05-09T05:38:52.855Z,38.76
2023-05-09T05:39:52.901Z,38.91
2023-05-09T05:40:52.958Z,39.05
2023-05-09T05:41:53.027Z,39.25
2023-05-09T05:42:53.064Z,39.44
2023-05-09T05:43:54.289Z,40.37
2023-05-09T05:44:53.053Z,40.94
2023-05-09T05:45:53.096Z,41.42
2023-05-09T05:46:53.128Z,41.26
2023-05-09T05:47:53.062Z,41.79
2023-05-09T05:48:53.022Z,41.43
2023-05-09T05:49:53.018Z,41.71
2023-05-09T05:50:52.986Z,41.64
2023-05-09T05:51:52.983Z,41.61
2023-05-09T05:52:53.556Z,41.47
2023-05-09T05:53:52.953Z,41.33
2023-05-09T05:54:52.945Z,41.26
2023-05-09T05:55:52.926Z,41.22
2023-05-09T05:56:52.927Z,41.18
2023-05-09T05:57:52.913Z,41.10
2023-05-09T05:58:52.893Z,41.01
2023-05-09T05:59:52.889Z,40.98
2023-05-09T06:00:53.570Z,40.85
2023-05-09T06:01:52.930Z,40.77
2023-05-09T06:02:52.914Z,40.62
2023-05-09T06:03:52.951Z,40.50
2023-05-09T06:04:54.660Z,40.53
2023-05-09T06:05:52.858Z,40.38
2023-05-09T06:06:52.824Z,40.31
2023-05-09T06:07:52.817Z,40.29
2023-05-09T06:08:52.820Z,40.26
2023-05-09T06:09:52.853Z,40.23
2023-05-09T06:10:52.808Z,40.19
2023-05-09T06:11:52.799Z,40.14
2023-05-09T06:12:52.852Z,40.14
2023-05-09T06:13:52.822Z,40.06
2023-05-09T06:14:52.789Z,40.07
2023-05-09T06:15:52.767Z,40.05
2023-05-09T06:16:52.816Z,39.98
2023-05-09T06:17:52.821Z,40.00
2023-05-09T06:18:55.767Z,39.97
2023-05-09T06:19:52.731Z,39.97
2023-05-09T06:20:52.770Z,39.87
2023-05-09T06:21:52.735Z,39.82
2023-05-09T06:22:52.752Z,39.81
2023-05-09T06:24:07.782Z,39.81
2023-05-09T06:24:53.717Z,39.78
2023-05-09T06:25:52.752Z,39.77
2023-05-09T06:26:52.731Z,39.74
2023-05-09T06:27:52.735Z,39.73
2023-05-09T06:28:52.694Z,39.70
2023-05-09T06:29:52.838Z,39.69
2023-05-09T06:30:52.713Z,39.64
2023-05-09T06:31:52.751Z,39.61
2023-05-09T06:32:52.748Z,39.61
2023-05-09T06:33:52.721Z,39.58
2023-05-09T06:34:52.701Z,39.55
2023-05-09T06:35:52.677Z,39.54
2023-05-09T06:36:52.688Z,39.52
2023-05-09T06:37:52.694Z,39.49
2023-05-09T06:38:52.690Z,39.45
2023-05-09T06:39:52.691Z,39.47
2023-05-09T06:40:52.715Z,39.65
2023-05-09T06:41:52.659Z,40.56
2023-05-09T06:42:52.659Z,40.45
2023-05-09T06:43:52.677Z,40.70
2023-05-09T06:44:52.689Z,40.72
2023-05-09T06:45:52.821Z,40.73
2023-05-09T06:46:52.628Z,40.80
2023-05-09T06:47:52.776Z,40.85
2023-05-09T06:48:52.643Z,40.83
2023-05-09T06:49:52.698Z,40.92
2023-05-09T06:50:52.714Z,40.82
2023-05-09T06:51:52.637Z,40.68
2023-05-09T06:52:52.640Z,40.85
2023-05-09T06:53:52.677Z,40.79
2023-05-09T06:54:52.580Z,40.83
2023-05-09T06:55:52.699Z,40.78
2023-05-09T06:56:52.635Z,40.77
2023-05-09T06:57:52.557Z,40.83
2023-05-09T06:58:52.570Z,40.76
2023-05-09T06:59:52.522Z,40.68
2023-05-09T07:00:52.538Z,40.63
2023-05-09T07:01:52.537Z,40.81
2023-05-09T07:02:52.522Z,40.84
2023-05-09T07:03:52.495Z,40.70
2023-05-09T07:04:52.534Z,40.82
2023-05-09T07:05:52.469Z,40.93
2023-05-09T07:06:52.559Z,40.87
2023-05-09T07:07:52.470Z,40.84
2023-05-09T07:08:52.488Z,40.77
2023-05-09T07:09:55.256Z,40.63
2023-05-09T07:10:53.438Z,40.53
2023-05-09T07:11:52.418Z,40.53
2023-05-09T07:12:52.413Z,40.59
2023-05-09T07:13:52.444Z,40.53
2023-05-09T07:14:52.386Z,40.42
2023-05-09T07:15:52.401Z,40.42
2023-05-09T07:16:52.483Z,40.43
2023-05-09T07:17:52.387Z,40.41
2023-05-09T07:18:52.350Z,40.40
2023-05-09T07:19:52.350Z,40.42
2023-05-09T07:20:52.418Z,40.40
2023-05-09T07:21:52.397Z,40.40
2023-05-09T07:22:52.498Z,40.35
2023-05-09T07:23:53.415Z,40.42
2023-05-09T07:24:52.286Z,40.57
2023-05-09T07:25:52.427Z,40.65
2023-05-09T07:26:52.258Z,40.68
2023-05-09T07:27:52.333Z,40.67
2023-05-09T07:28:52.232Z,40.66
2023-05-09T07:29:52.417Z,40.71
2023-05-09T07:30:52.230Z,40.68
2023-05-09T07:31:52.249Z,40.76
2023-05-09T07:32:52.387Z,40.82
2023-05-09T07:33:52.169Z,40.81
2023-05-09T07:34:52.504Z,40.76
2023-05-09T07:35:52.144Z,41.02
2023-05-09T07:36:52.158Z,41.41
2023-05-09T07:37:52.144Z,40.85
2023-05-09T07:38:52.706Z,40.75
2023-05-09T07:39:52.352Z,40.42
2023-05-09T07:40:52.078Z,40.56
2023-05-09T07:41:52.068Z,40.14
2023-05-09T07:42:52.050Z,40.12
2023-05-09T07:43:53.195Z,40.40
2023-05-09T07:44:52.074Z,40.33
2023-05-09T07:45:52.100Z,40.32
2023-05-09T07:46:52.017Z,40.30
2023-05-09T07:47:52.057Z,40.25
2023-05-09T07:48:52.027Z,40.37
2023-05-09T07:49:51.965Z,40.54
2023-05-09T07:50:51.938Z,40.60
2023-05-09T07:51:51.931Z,40.61
2023-05-09T07:52:51.923Z,40.60
2023-05-09T07:53:51.904Z,40.63
2023-05-09T07:54:52.035Z,40.54
2023-05-09T07:55:51.896Z,40.45
2023-05-09T07:56:51.870Z,40.50
2023-05-09T07:57:51.829Z,40.62
2023-05-09T07:58:53.707Z,40.57
2023-05-09T07:59:51.790Z,40.53
2023-05-09T08:00:51.819Z,40.40
2023-05-09T08:01:51.788Z,40.14
2023-05-09T08:02:51.917Z,40.04
2023-05-09T08:03:51.782Z,39.90
2023-05-09T08:04:51.683Z,39.73
2023-05-09T08:05:51.773Z,39.55
2023-05-09T08:06:51.649Z,39.57
2023-05-09T08:07:51.649Z,39.65
2023-05-09T08:08:51.601Z,39.54
2023-05-09T08:09:51.568Z,39.35
2023-05-09T08:10:51.645Z,39.40
2023-05-09T08:11:51.540Z,39.44
2023-05-09T08:12:51.735Z,39.45
2023-05-09T08:13:51.508Z,39.55
2023-05-09T08:14:51.491Z,39.59
2023-05-09T08:15:51.490Z,39.65
2023-05-09T08:16:51.448Z,39.63
2023-05-09T08:17:51.569Z,39.61
2023-05-09T08:18:51.537Z,39.65
2023-05-09T08:19:51.590Z,39.68
2023-05-09T08:20:51.623Z,39.68
2023-05-09T08:21:51.745Z,39.63
2023-05-09T08:22:51.698Z,39.72
2023-05-09T08:23:51.848Z,39.72
2023-05-09T08:24:51.868Z,39.73
2023-05-09T08:25:51.855Z,39.79
2023-05-09T08:26:52.021Z,39.82
2023-05-09T08:27:53.072Z,39.78
2023-05-09T08:28:51.898Z,39.76
2023-05-09T08:29:51.878Z,39.81
2023-05-09T08:30:51.923Z,39.66
2023-05-09T08:31:51.882Z,40.00
2023-05-09T08:32:51.827Z,39.49
2023-05-09T08:33:51.836Z,39.43
2023-05-09T08:34:51.764Z,38.98
2023-05-09T08:35:51.813Z,38.44
2023-05-09T08:36:51.803Z,38.28
2023-05-09T08:37:51.814Z,38.23
2023-05-09T08:38:51.898Z,38.17
2023-05-09T08:39:51.885Z,38.16
2023-05-09T08:40:52.055Z,38.14
2023-05-09T08:41:51.947Z,38.08
2023-05-09T08:42:52.096Z,38.14
2023-05-09T08:43:52.035Z,38.08
2023-05-09T08:44:52.083Z,38.16
2023-05-09T08:45:52.112Z,38.26
2023-05-09T08:46:52.137Z,38.49
2023-05-09T08:47:52.109Z,38.59
2023-05-09T08:48:52.082Z,38.47
2023-05-09T08:49:52.077Z,38.51
2023-05-09T08:50:51.982Z,38.39
2023-05-09T08:51:51.981Z,38.48
2023-05-09T08:52:51.932Z,38.60
2023-05-09T08:53:52.013Z,38.72
2023-05-09T08:54:51.888Z,38.85
2023-05-09T08:55:51.883Z,38.86
2023-05-09T08:56:51.874Z,38.97
2023-05-09T08:57:51.831Z,39.06
2023-05-09T08:58:51.909Z,39.29
2023-05-09T08:59:51.901Z,39.32
2023-05-09T09:00:51.830Z,39.52
2023-05-09T09:01:51.862Z,39.54
2023-05-09T09:02:51.909Z,39.73
2023-05-09T09:03:51.920Z,39.77
2023-05-09T09:04:51.989Z,39.95
2023-05-09T09:05:52.012Z,40.65
2023-05-09T09:06:52.034Z,40.41
2023-05-09T09:07:52.078Z,40.23
2023-05-09T09:08:52.150Z,40.20
2023-05-09T09:09:52.229Z,39.99
2023-05-09T09:10:52.153Z,40.06
2023-05-09T09:11:52.128Z,39.99
2023-05-09T09:12:52.189Z,39.98
2023-05-09T09:13:52.067Z,39.90
2023-05-09T09:14:52.112Z,39.92
2023-05-09T09:15:51.991Z,39.93
2023-05-09T09:16:52.044Z,39.96
2023-05-09T09:17:52.181Z,40.07
2023-05-09T09:18:52.026Z,40.02
2023-05-09T09:19:51.966Z,40.08
2023-05-09T09:20:51.947Z,39.95
2023-05-09T09:21:51.927Z,39.91
2023-05-09T09:22:52.032Z,39.93
2023-05-09T09:23:51.947Z,39.87
2023-05-09T09:24:52.517Z,39.81
2023-05-09T09:25:51.798Z,39.91
2023-05-09T09:26:51.790Z,39.93
2023-05-09T09:27:51.836Z,39.89
2023-05-09T09:28:51.743Z,39.96
2023-05-09T09:29:51.750Z,39.97
2023-05-09T09:30:51.782Z,39.85
2023-05-09T09:31:51.682Z,39.57
2023-05-09T09:32:51.625Z,39.53
2023-05-09T09:33:51.571Z,39.43
2023-05-09T09:34:51.546Z,39.54
2023-05-09T09:35:51.629Z,39.26
2023-05-09T09:36:51.613Z,39.08
2023-05-09T09:37:51.640Z,38.96
2023-05-09T09:38:51.720Z,38.82
2023-05-09T09:39:51.728Z,39.09
2023-05-09T09:40:51.723Z,38.92
2023-05-09T09:41:51.773Z,39.10
2023-05-09T09:42:51.797Z,39.14
2023-05-09T09:43:51.810Z,39.42
2023-05-09T09:44:51.839Z,39.44
2023-05-09T09:45:51.973Z,39.26
2023-05-09T09:46:51.931Z,39.29
2023-05-09T09:47:51.959Z,39.58
2023-05-09T09:48:51.881Z,39.49
2023-05-09T09:49:51.912Z,39.53
2023-05-09T09:50:51.953Z,39.68
2023-05-09T09:51:51.937Z,39.56
2023-05-09T09:52:51.942Z,39.41
2023-05-09T09:53:51.917Z,39.10
2023-05-09T09:54:51.912Z,38.92
2023-05-09T09:55:51.914Z,38.69
2023-05-09T09:56:51.918Z,38.52
2023-05-09T09:57:51.947Z,38.61
2023-05-09T09:58:51.936Z,38.29
2023-05-09T09:59:51.999Z,38.39
2023-05-09T10:00:51.972Z,38.12
2023-05-09T10:01:51.829Z,37.97
2023-05-09T10:02:51.995Z,37.85
2023-05-09T10:03:51.854Z,37.77
2023-05-09T10:04:51.744Z,37.71
2023-05-09T10:05:51.704Z,37.70
2023-05-09T10:06:51.635Z,37.57
2023-05-09T10:07:51.617Z,37.49
2023-05-09T10:08:51.667Z,37.38
2023-05-09T10:09:51.567Z,37.38
2023-05-09T10:10:51.645Z,37.27
2023-05-09T10:11:51.477Z,37.27
2023-05-09T10:12:51.491Z,37.23
2023-05-09T10:13:51.396Z,37.16
2023-05-09T10:14:51.374Z,37.12
2023-05-09T10:15:53.906Z,37.16
2023-05-09T10:16:51.451Z,37.18
2023-05-09T10:17:51.580Z,37.09
2023-05-09T10:18:51.426Z,37.07
2023-05-09T10:19:51.272Z,37.03
2023-05-09T10:20:51.242Z,37.02
2023-05-09T10:21:51.174Z,37.04
2023-05-09T10:22:51.147Z,36.97
2023-05-09T10:23:51.122Z,36.93
2023-05-09T10:24:51.082Z,36.91
2023-05-09T10:25:51.070Z,36.92
2023-05-09T10:26:51.038Z,36.90
2023-05-09T10:27:50.976Z,36.87
2023-05-09T10:28:50.955Z,36.89
2023-05-09T10:29:50.975Z,36.87
2023-05-09T10:30:50.974Z,36.88
2023-05-09T10:31:51.005Z,37.59
2023-05-09T10:32:51.027Z,37.63
2023-05-09T10:33:52.018Z,38.06
2023-05-09T10:34:51.160Z,37.73
2023-05-09T10:35:51.094Z,37.60
2023-05-09T10:36:51.101Z,37.46
2023-05-09T10:37:51.139Z,37.43
2023-05-09T10:38:51.199Z,37.42
2023-05-09T10:39:51.179Z,37.69
2023-05-09T10:40:51.998Z,38.27
2023-05-09T10:41:51.243Z,38.59
2023-05-09T10:42:51.275Z,38.81
2023-05-09T10:43:51.283Z,39.57
2023-05-09T10:44:51.318Z,39.49
2023-05-09T10:45:51.346Z,38.98
2023-05-09T10:46:51.451Z,38.75
2023-05-09T10:47:51.439Z,38.67
2023-05-09T10:48:51.425Z,38.60
2023-05-09T10:49:51.454Z,38.59
2023-05-09T10:50:51.573Z,38.46
2023-05-09T10:51:51.469Z,38.41
2023-05-09T10:52:51.499Z,38.43
2023-05-09T10:53:51.546Z,38.33
2023-05-09T10:54:51.534Z,38.19
2023-05-09T10:55:51.606Z,38.14
2023-05-09T10:56:51.646Z,38.09
2023-05-09T10:57:51.626Z,37.98
2023-05-09T10:58:51.649Z,37.88
2023-05-09T10:59:51.722Z,37.84
2023-05-09T11:00:51.690Z,37.68
2023-05-09T11:01:51.756Z,37.59
2023-05-09T11:02:51.803Z,37.45
2023-05-09T11:03:51.860Z,37.38
2023-05-09T11:04:51.799Z,37.29
2023-05-09T11:05:51.755Z,37.20
2023-05-09T11:06:52.273Z,37.16
2023-05-09T11:07:51.671Z,37.10
2023-05-09T11:08:51.641Z,37.04
2023-05-09T11:09:51.608Z,36.94
2023-05-09T11:10:51.567Z,36.89
2023-05-09T11:11:51.595Z,36.77
2023-05-09T11:12:51.556Z,36.65
2023-05-09T11:13:51.520Z,36.63
2023-05-09T11:14:51.479Z,36.55
2023-05-09T11:15:51.537Z,36.46
2023-05-09T11:16:51.415Z,36.40
2023-05-09T11:17:51.433Z,36.34
2023-05-09T11:18:51.324Z,36.29
2023-05-09T11:19:51.302Z,36.25
2023-05-09T11:20:51.290Z,36.18
2023-05-09T11:21:52.026Z,36.13
2023-05-09T11:22:51.300Z,36.04
2023-05-09T11:23:52.415Z,36.07
2023-05-09T11:24:51.146Z,35.96
2023-05-09T11:25:52.021Z,35.98
2023-05-09T11:26:51.090Z,35.94
2023-05-09T11:27:51.068Z,35.94
2023-05-09T11:28:51.082Z,35.88
2023-05-09T11:29:51.047Z,35.90
2023-05-09T11:30:51.017Z,35.88
2023-05-09T11:31:50.979Z,35.84
2023-05-09T11:32:50.897Z,35.80
2023-05-09T11:33:50.842Z,35.79
2023-05-09T11:34:50.845Z,35.73
2023-05-09T11:35:50.794Z,35.72
2023-05-09T11:36:50.744Z,35.70
2023-05-09T11:37:50.741Z,35.74
2023-05-09T11:38:50.811Z,35.69
2023-05-09T11:39:50.715Z,35.67
2023-05-09T11:40:50.645Z,35.65
2023-05-09T11:41:50.684Z,35.63
2023-05-09T11:42:50.725Z,35.65
2023-05-09T11:43:50.752Z,35.64
2023-05-09T11:44:50.818Z,35.64
2023-05-09T11:45:50.912Z,35.58
2023-05-09T11:46:50.914Z,35.60
2023-05-09T11:47:50.987Z,35.60
2023-05-09T11:48:50.962Z,35.57
2023-05-09T11:49:51.104Z,35.60
2023-05-09T11:50:51.029Z,35.57
2023-05-09T11:51:51.073Z,35.60
2023-05-09T11:52:51.198Z,35.59
2023-05-09T11:53:51.139Z,35.57
2023-05-09T11:54:51.270Z,35.56
2023-05-09T11:55:51.417Z,35.52
2023-05-09T11:56:51.249Z,35.57
2023-05-09T11:57:51.288Z,35.54
2023-05-09T11:58:51.336Z,35.50
2023-05-09T11:59:51.394Z,35.48
2023-05-09T12:00:51.407Z,35.49
2023-05-09T12:01:51.475Z,35.45
2023-05-09T12:02:51.740Z,35.43
2023-05-09T12:03:51.610Z,35.45
2023-05-09T12:04:51.569Z,35.47
2023-05-09T12:05:51.607Z,35.46
2023-05-09T12:06:51.568Z,35.44
2023-05-09T12:07:51.540Z,35.44
2023-05-09T12:08:51.509Z,35.45
2023-05-09T12:09:51.477Z,35.48
2023-05-09T12:10:51.543Z,35.45
2023-05-09T12:11:51.459Z,35.44
2023-05-09T12:12:51.401Z,35.46
2023-05-09T12:13:51.351Z,35.42
2023-05-09T12:14:51.593Z,35.42
2023-05-09T12:15:51.381Z,35.40
2023-05-09T12:16:51.351Z,35.44
2023-05-09T12:17:52.093Z,35.41
2023-05-09T12:18:51.447Z,35.39
2023-05-09T12:19:51.453Z,35.42
2023-05-09T12:20:51.439Z,35.41
2023-05-09T12:21:51.391Z,35.40
2023-05-09T12:22:51.362Z,35.38
2023-05-09T12:23:53.181Z,35.32
2023-05-09T12:24:51.328Z,35.31
2023-05-09T12:25:51.291Z,35.30
2023-05-09T12:26:51.360Z,35.26
2023-05-09T12:27:51.262Z,35.30
2023-05-09T12:28:51.227Z,35.29
2023-05-09T12:29:53.055Z,35.31
2023-05-09T12:30:51.173Z,35.31
2023-05-09T12:31:51.219Z,35.32
2023-05-09T12:32:51.221Z,35.27
2023-05-09T12:33:51.107Z,35.27
2023-05-09T12:34:51.206Z,35.24
2023-05-09T12:35:51.592Z,35.17
2023-05-09T12:36:51.081Z,35.17
2023-05-09T12:37:51.100Z,35.12
2023-05-09T12:38:50.978Z,35.12
2023-05-09T12:39:50.982Z,35.11
2023-05-09T12:40:50.946Z,35.15
2023-05-09T12:42:01.154Z,35.06
2023-05-09T12:42:52.090Z,35.07
2023-05-09T12:43:50.884Z,35.04
2023-05-09T12:44:50.858Z,35.02
2023-05-09T12:45:50.811Z,35.01
2023-05-09T12:46:50.842Z,34.99
2023-05-09T12:47:50.788Z,34.99
2023-05-09T12:48:50.765Z,34.96
2023-05-09T12:49:50.745Z,34.98
2023-05-09T12:50:50.687Z,34.99
2023-05-09T12:51:50.724Z,34.95
2023-05-09T12:53:02.864Z,34.92